createdAt,value
2018-08-12T00:00:12.009Z,16.60
2018-08-12T00:02:39.978Z,16.60
2018-08-12T00:05:08.003Z,16.70
2018-08-12T00:07:35.976Z,16.60
2018-08-12T00:10:06.165Z,16.60
2018-08-12T00:12:34.185Z,16.60
2018-08-12T00:15:02.257Z,16.60
2018-08-12T00:17:30.212Z,16.50
2018-08-12T00:19:58.184Z,16.60
2018-08-12T00:22:26.140Z,16.50
2018-08-12T00:24:54.143Z,16.30
2018-08-12T00:27:22.180Z,16.30
2018-08-12T00:29:50.285Z,16.30
2018-08-12T00:32:18.266Z,16.40
2018-08-12T00:34:46.349Z,16.50
2018-08-12T00:37:14.403Z,16.50
2018-08-12T00:39:42.369Z,16.40
2018-08-12T00:42:10.324Z,16.30
2018-08-12T00:44:38.425Z,16.20
2018-08-12T00:47:06.439Z,16.00
2018-08-12T00:49:34.484Z,15.90
2018-08-12T00:52:02.502Z,15.90
2018-08-12T00:54:30.511Z,15.90
2018-08-12T00:56:58.521Z,15.90
2018-08-12T00:59:26.540Z,15.80
2018-08-12T01:01:54.570Z,15.70
2018-08-12T01:04:22.544Z,15.70
2018-08-12T01:06:50.598Z,15.60
2018-08-12T01:09:18.624Z,15.50
2018-08-12T01:11:46.699Z,15.30
2018-08-12T01:14:14.707Z,15.40
2018-08-12T01:16:42.678Z,15.40
2018-08-12T01:19:10.627Z,15.40
2018-08-12T01:21:38.599Z,15.50
2018-08-12T01:24:06.583Z,15.50
2018-08-12T01:26:34.560Z,15.30
2018-08-12T01:29:02.532Z,15.20
2018-08-12T01:31:30.811Z,15.10
2018-08-12T01:33:58.790Z,15.10
2018-08-12T01:36:26.837Z,15.20
2018-08-12T01:38:54.905Z,15.20
2018-08-12T01:41:22.869Z,15.30
2018-08-12T01:43:50.872Z,15.20
2018-08-12T01:46:18.874Z,15.10
2018-08-12T01:48:46.887Z,15.10
2018-08-12T01:51:14.858Z,15.30
2018-08-12T01:53:42.930Z,15.40
2018-08-12T01:56:10.927Z,15.30
2018-08-12T01:58:38.872Z,15.30
2018-08-12T02:01:06.832Z,15.20
2018-08-12T02:03:34.808Z,15.30
2018-08-12T02:06:02.887Z,15.30
2018-08-12T02:08:31.279Z,15.20
2018-08-12T02:10:59.324Z,15.20
2018-08-12T02:13:27.308Z,15.20
2018-08-12T02:15:55.262Z,15.00
2018-08-12T02:18:23.295Z,15.00
2018-08-12T02:20:51.306Z,15.10
2018-08-12T02:23:19.430Z,15.00
2018-08-12T02:25:47.443Z,15.00
2018-08-12T02:28:15.428Z,14.90
2018-08-12T02:30:43.388Z,15.00
2018-08-12T02:33:11.356Z,15.00
2018-08-12T02:35:39.294Z,15.00
2018-08-12T02:38:07.287Z,15.10
2018-08-12T02:40:35.255Z,15.00
2018-08-12T02:43:03.276Z,14.90
2018-08-12T02:45:31.885Z,14.70
2018-08-12T02:47:59.887Z,14.60
2018-08-12T02:50:27.922Z,14.60
2018-08-12T02:52:55.913Z,14.60
2018-08-12T02:55:23.909Z,14.60
2018-08-12T02:57:51.876Z,14.40
2018-08-12T03:00:19.900Z,14.40
2018-08-12T03:02:47.913Z,14.50
2018-08-12T03:05:15.881Z,14.60
2018-08-12T03:07:44.059Z,14.50
2018-08-12T03:10:12.144Z,14.60
2018-08-12T03:12:40.111Z,14.70
2018-08-12T03:15:09.106Z,14.60
2018-08-12T03:17:37.380Z,14.60
2018-08-12T03:20:06.836Z,14.60
2018-08-12T03:22:35.049Z,14.50
2018-08-12T03:25:03.050Z,14.40
2018-08-12T03:27:30.990Z,14.40
2018-08-12T03:29:59.091Z,14.30
2018-08-12T03:32:26.965Z,14.50
2018-08-12T03:34:54.951Z,14.40
2018-08-12T03:37:22.941Z,14.50
2018-08-12T03:39:50.902Z,14.70
2018-08-12T03:42:18.925Z,14.80
2018-08-12T03:44:46.917Z,14.70
2018-08-12T03:47:14.907Z,14.70
2018-08-12T03:49:42.900Z,14.80
2018-08-12T03:52:10.951Z,14.70
2018-08-12T03:54:38.946Z,14.80
2018-08-12T03:57:06.893Z,14.80
2018-08-12T03:59:34.864Z,14.70
2018-08-12T04:02:02.927Z,14.90
2018-08-12T04:04:30.896Z,14.70
2018-08-12T04:06:58.912Z,14.50
2018-08-12T04:09:26.861Z,14.40
2018-08-12T04:11:54.833Z,14.30
2018-08-12T04:14:22.815Z,14.20
2018-08-12T04:16:59.579Z,14.10
2018-08-12T04:19:28.483Z,14.10
2018-08-12T04:21:56.468Z,13.90
2018-08-12T04:24:25.056Z,13.90
2018-08-12T04:26:53.077Z,13.90
2018-08-12T04:29:21.105Z,13.90
2018-08-12T04:31:49.114Z,13.90
2018-08-12T04:34:17.064Z,13.80
2018-08-12T04:36:45.087Z,13.90
2018-08-12T04:39:13.995Z,14.00
2018-08-12T04:41:43.423Z,14.00
2018-08-12T04:44:11.607Z,14.00
2018-08-12T04:46:39.600Z,14.00
2018-08-12T04:49:08.508Z,14.00
2018-08-12T04:51:36.690Z,14.00
2018-08-12T04:54:04.956Z,14.10
2018-08-12T04:56:33.728Z,14.10
2018-08-12T04:59:01.770Z,14.20
2018-08-12T05:01:29.800Z,14.30
2018-08-12T05:03:57.915Z,14.30
2018-08-12T05:06:25.952Z,14.30
2018-08-12T05:08:53.920Z,14.30
2018-08-12T05:11:21.883Z,14.30
2018-08-12T05:13:49.855Z,14.30
2018-08-12T05:16:18.295Z,14.30
2018-08-12T05:18:46.307Z,14.30
2018-08-12T05:21:14.316Z,14.20
2018-08-12T05:23:42.329Z,14.40
2018-08-12T05:26:10.346Z,14.40
2018-08-12T05:28:38.310Z,14.60
2018-08-12T05:31:12.791Z,14.70
2018-08-12T05:33:40.801Z,14.70
2018-08-12T05:36:08.827Z,14.90
2018-08-12T05:38:36.808Z,15.00
2018-08-12T05:41:04.812Z,15.20
2018-08-12T05:43:32.916Z,15.20
2018-08-12T05:46:00.959Z,15.10
2018-08-12T05:48:28.904Z,15.30
2018-08-12T05:50:56.913Z,15.30
2018-08-12T05:53:25.229Z,15.40
2018-08-12T05:55:53.232Z,15.50
2018-08-12T05:58:21.255Z,15.40
2018-08-12T06:00:49.299Z,15.40
2018-08-12T06:03:17.332Z,15.50
2018-08-12T06:05:45.396Z,15.60
2018-08-12T06:08:13.558Z,15.70
2018-08-12T06:10:41.565Z,15.60
2018-08-12T06:13:09.556Z,15.50
2018-08-12T06:15:37.625Z,15.70
2018-08-12T06:18:05.876Z,15.70
2018-08-12T06:20:34.904Z,15.60
2018-08-12T06:23:02.921Z,15.80
2018-08-12T06:25:30.934Z,15.80
2018-08-12T06:27:58.999Z,15.80
2018-08-12T06:30:26.956Z,15.90
2018-08-12T06:32:54.896Z,16.00
2018-08-12T06:35:22.897Z,16.20
2018-08-12T06:37:51.063Z,16.20
2018-08-12T06:40:19.098Z,16.30
2018-08-12T06:42:47.122Z,16.30
2018-08-12T06:45:16.482Z,16.30
2018-08-12T06:47:45.702Z,16.20
2018-08-12T06:50:13.673Z,16.30
2018-08-12T06:52:42.541Z,16.40
2018-08-12T06:55:11.966Z,16.50
2018-08-12T06:57:40.676Z,16.60
2018-08-12T07:00:10.561Z,16.70
2018-08-12T07:02:38.616Z,16.80
2018-08-12T07:05:07.929Z,16.80
2018-08-12T07:07:36.208Z,17.10
2018-08-12T07:10:06.460Z,17.20
2018-08-12T07:12:34.448Z,17.10
2018-08-12T07:15:02.477Z,17.20
2018-08-12T07:17:30.475Z,17.40
2018-08-12T07:19:58.463Z,17.40
2018-08-12T07:22:26.477Z,17.50
2018-08-12T07:24:54.442Z,17.70
2018-08-12T07:27:22.413Z,17.80
2018-08-12T07:29:50.507Z,17.90
2018-08-12T07:32:18.504Z,18.10
2018-08-12T07:34:46.445Z,18.10
2018-08-12T07:37:14.389Z,18.10
2018-08-12T07:39:42.381Z,18.20
2018-08-12T07:42:10.335Z,18.30
2018-08-12T07:44:38.447Z,18.40
2018-08-12T07:47:06.469Z,18.50
2018-08-12T07:49:34.562Z,18.60
2018-08-12T07:52:02.588Z,18.50
2018-08-12T07:54:30.638Z,18.70
2018-08-12T07:56:58.626Z,18.90
2018-08-12T07:59:26.631Z,19.00
2018-08-12T08:01:54.765Z,19.00
2018-08-12T08:04:22.783Z,19.10
2018-08-12T08:06:50.787Z,19.40
2018-08-12T08:09:18.761Z,19.70
2018-08-12T08:11:46.720Z,19.90
2018-08-12T08:14:14.668Z,20.10
2018-08-12T08:16:42.631Z,20.30
2018-08-12T08:19:10.831Z,20.20
2018-08-12T08:21:38.854Z,20.30
2018-08-12T08:24:06.952Z,20.40
2018-08-12T08:26:35.025Z,20.20
2018-08-12T08:29:03.032Z,20.30
2018-08-12T08:31:31.153Z,20.20
2018-08-12T08:33:59.148Z,20.40
2018-08-12T08:36:27.203Z,20.50
2018-08-12T08:38:56.004Z,20.60
2018-08-12T08:41:24.004Z,20.40
2018-08-12T08:43:52.115Z,20.40
2018-08-12T08:46:20.097Z,20.40
2018-08-12T08:48:48.115Z,20.60
2018-08-12T08:51:16.230Z,20.70
2018-08-12T08:53:44.243Z,20.70
2018-08-12T08:56:12.347Z,20.80
2018-08-12T08:58:40.325Z,20.80
2018-08-12T09:01:08.354Z,21.10
2018-08-12T09:03:37.272Z,20.80
2018-08-12T09:06:05.395Z,20.90
2018-08-12T09:08:33.797Z,21.10
2018-08-12T09:11:01.521Z,21.00
2018-08-12T09:13:29.519Z,21.20
2018-08-12T09:15:57.484Z,21.30
2018-08-12T09:18:25.453Z,21.20
2018-08-12T09:20:53.443Z,20.90
2018-08-12T09:23:21.471Z,20.90
2018-08-12T09:25:49.504Z,21.00
2018-08-12T09:28:17.587Z,21.10
2018-08-12T09:30:45.561Z,20.90
2018-08-12T09:33:13.566Z,20.90
2018-08-12T09:35:41.525Z,21.10
2018-08-12T09:38:09.511Z,21.10
2018-08-12T09:40:38.028Z,21.20
2018-08-12T09:43:06.139Z,21.10
2018-08-12T09:45:34.127Z,21.20
2018-08-12T09:48:02.237Z,21.40
2018-08-12T09:50:30.240Z,21.30
2018-08-12T09:52:58.232Z,21.40
2018-08-12T09:55:26.200Z,21.70
2018-08-12T09:57:54.171Z,21.70
2018-08-12T10:00:28.040Z,21.80
2018-08-12T10:02:56.928Z,21.80
2018-08-12T10:05:25.369Z,22.00
2018-08-12T10:07:53.345Z,22.00
2018-08-12T10:10:21.370Z,21.90
2018-08-12T10:12:49.356Z,22.10
2018-08-12T10:15:17.680Z,21.80
2018-08-12T10:17:47.799Z,22.00
2018-08-12T10:20:15.851Z,22.30
2018-08-12T10:22:43.865Z,22.50
2018-08-12T10:25:11.862Z,22.50
2018-08-12T10:27:39.851Z,22.40
2018-08-12T10:30:11.063Z,22.20
2018-08-12T10:32:39.279Z,22.40
2018-08-12T10:35:08.692Z,22.40
2018-08-12T10:37:36.798Z,22.30
2018-08-12T10:40:07.107Z,22.50
2018-08-12T10:42:35.133Z,22.60
2018-08-12T10:45:03.203Z,22.60
2018-08-12T10:47:31.950Z,22.70
2018-08-12T10:49:59.939Z,22.90
2018-08-12T10:52:27.982Z,22.80
2018-08-12T10:54:56.056Z,22.80
2018-08-12T10:57:24.047Z,22.90
2018-08-12T10:59:52.049Z,23.10
2018-08-12T11:02:20.117Z,23.40
2018-08-12T11:04:48.109Z,23.40
2018-08-12T11:07:16.213Z,23.40
2018-08-12T11:09:44.200Z,23.60
2018-08-12T11:12:12.205Z,23.80
2018-08-12T11:14:40.261Z,23.80
2018-08-12T11:17:08.356Z,24.00
2018-08-12T11:19:36.381Z,23.80
2018-08-12T11:22:07.329Z,24.20
2018-08-12T11:24:35.388Z,24.70
2018-08-12T11:27:03.431Z,25.40
2018-08-12T11:29:31.673Z,24.70
2018-08-12T11:31:59.742Z,24.70
2018-08-12T11:34:27.864Z,24.80
2018-08-12T11:36:55.884Z,24.80
2018-08-12T11:39:23.895Z,24.70
2018-08-12T11:41:51.929Z,25.10
2018-08-12T11:44:19.925Z,25.10
2018-08-12T11:46:47.972Z,25.60
2018-08-12T11:49:16.206Z,25.80
2018-08-12T11:51:44.192Z,25.70
2018-08-12T11:54:12.212Z,26.30
2018-08-12T11:56:40.423Z,26.60
2018-08-12T11:59:08.469Z,26.90
2018-08-12T12:01:36.604Z,27.60
2018-08-12T12:04:04.653Z,28.00
2018-08-12T12:06:32.784Z,28.90
2018-08-12T12:09:00.896Z,29.20
2018-08-12T12:11:28.891Z,29.50
2018-08-12T12:13:56.860Z,30.20
2018-08-12T12:16:24.832Z,31.40
2018-08-12T12:18:52.872Z,31.60
2018-08-12T12:21:20.912Z,32.10
2018-08-12T12:23:49.506Z,32.10
2018-08-12T12:26:17.453Z,32.00
2018-08-12T12:28:45.486Z,31.20
2018-08-12T12:31:13.454Z,31.60
2018-08-12T12:33:41.476Z,30.50
2018-08-12T12:36:09.468Z,31.90
2018-08-12T12:38:37.539Z,33.40
2018-08-12T12:41:05.523Z,32.60
2018-08-12T12:43:33.598Z,33.00
2018-08-12T12:46:01.667Z,33.40
2018-08-12T12:48:29.691Z,34.40
2018-08-12T12:50:57.726Z,34.80
2018-08-12T12:53:25.812Z,33.70
2018-08-12T12:55:53.856Z,32.40
2018-08-12T12:58:21.912Z,32.90
2018-08-12T13:00:49.927Z,33.80
2018-08-12T13:03:17.884Z,33.10
2018-08-12T13:05:45.980Z,33.10
2018-08-12T13:08:14.078Z,32.80
2018-08-12T13:10:42.072Z,34.90
2018-08-12T13:13:10.050Z,36.80
2018-08-12T13:15:38.048Z,35.90
2018-08-12T13:18:06.200Z,36.90
2018-08-12T13:20:34.723Z,35.40
2018-08-12T13:23:02.823Z,35.50
2018-08-12T13:25:30.845Z,35.50
2018-08-12T13:27:58.824Z,36.90
2018-08-12T13:30:26.833Z,38.10
2018-08-12T13:32:54.865Z,39.00
2018-08-12T13:35:22.846Z,40.30
2018-08-12T13:37:50.847Z,40.00
2018-08-12T13:40:18.871Z,40.30
2018-08-12T13:42:47.178Z,40.20
2018-08-12T13:45:15.338Z,39.90
2018-08-12T13:47:44.514Z,38.40
2018-08-12T13:50:17.599Z,39.00
2018-08-12T13:52:45.752Z,37.80
2018-08-12T13:55:13.782Z,37.70
2018-08-12T13:57:42.742Z,37.40
2018-08-12T14:00:14.116Z,37.30
2018-08-12T14:02:43.184Z,35.30
2018-08-12T14:05:12.484Z,36.90
2018-08-12T14:07:40.552Z,38.90
2018-08-12T14:10:09.755Z,38.60
2018-08-12T14:12:38.055Z,37.70
2018-08-12T14:15:08.259Z,38.90
2018-08-12T14:17:36.337Z,39.30
2018-08-12T14:20:05.321Z,38.50
2018-08-12T14:22:33.380Z,37.30
2018-08-12T14:25:01.432Z,36.40
2018-08-12T14:27:29.469Z,37.80
2018-08-12T14:29:57.449Z,38.30
2018-08-12T14:32:25.577Z,37.60
2018-08-12T14:34:53.623Z,38.10
2018-08-12T14:37:21.610Z,37.30
2018-08-12T14:39:50.061Z,37.80
2018-08-12T14:42:18.142Z,39.10
2018-08-12T14:44:46.252Z,37.30
2018-08-12T14:47:14.420Z,36.30
2018-08-12T14:49:43.304Z,37.50
2018-08-12T14:52:11.300Z,38.10
2018-08-12T14:54:39.378Z,38.50
2018-08-12T14:57:07.372Z,38.20
2018-08-12T14:59:35.406Z,37.70
2018-08-12T15:02:03.481Z,36.80
2018-08-12T15:04:31.548Z,36.30
2018-08-12T15:06:59.596Z,37.30
2018-08-12T15:09:27.641Z,37.60
2018-08-12T15:11:55.661Z,37.10
2018-08-12T15:14:23.710Z,36.90
2018-08-12T15:16:51.721Z,36.50
2018-08-12T15:19:19.676Z,34.40
2018-08-12T15:21:47.793Z,33.30
2018-08-12T15:24:15.778Z,33.60
2018-08-12T15:26:43.840Z,32.60
2018-08-12T15:29:11.926Z,33.10
2018-08-12T15:31:39.915Z,33.40
2018-08-12T15:34:08.491Z,32.30
2018-08-12T15:36:36.542Z,31.60
2018-08-12T15:39:08.489Z,32.10
2018-08-12T15:41:43.164Z,32.80
2018-08-12T15:44:11.611Z,32.80
2018-08-12T15:46:39.913Z,32.80
2018-08-12T15:49:07.961Z,32.40
2018-08-12T15:51:36.012Z,31.90
2018-08-12T15:54:04.132Z,32.00
2018-08-12T15:56:32.546Z,31.70
2018-08-12T15:59:00.584Z,31.50
2018-08-12T16:01:28.583Z,31.70
2018-08-12T16:03:56.655Z,31.50
2018-08-12T16:06:24.709Z,30.50
2018-08-12T16:08:52.818Z,30.60
2018-08-12T16:11:20.753Z,30.10
2018-08-12T16:13:48.770Z,30.20
2018-08-12T16:16:16.851Z,30.40
2018-08-12T16:18:44.856Z,30.90
2018-08-12T16:21:12.908Z,31.10
2018-08-12T16:23:40.902Z,30.80
2018-08-12T16:26:08.893Z,31.00
2018-08-12T16:28:36.988Z,31.20
2018-08-12T16:31:05.065Z,31.40
2018-08-12T16:33:33.131Z,31.40
2018-08-12T16:36:01.142Z,31.60
2018-08-12T16:38:29.125Z,31.50
2018-08-12T16:40:57.269Z,31.30
2018-08-12T16:43:25.268Z,31.00
2018-08-12T16:45:53.268Z,30.60
2018-08-12T16:48:21.292Z,30.50
2018-08-12T16:50:49.424Z,29.90
2018-08-12T16:53:17.487Z,29.30
2018-08-12T16:55:45.618Z,29.00
2018-08-12T16:58:13.647Z,29.30
2018-08-12T17:00:41.655Z,29.40
2018-08-12T17:03:09.796Z,29.30
2018-08-12T17:05:37.856Z,29.20
2018-08-12T17:08:06.333Z,29.00
2018-08-12T17:10:34.350Z,29.20
2018-08-12T17:13:02.411Z,29.30
2018-08-12T17:15:30.492Z,29.20
2018-08-12T17:17:58.598Z,29.10
2018-08-12T17:20:26.531Z,28.90
2018-08-12T17:22:54.560Z,28.70
2018-08-12T17:25:22.713Z,28.70
2018-08-12T17:27:50.700Z,28.40
2018-08-12T17:30:18.942Z,28.20
2018-08-12T17:32:47.008Z,28.10
2018-08-12T17:35:15.432Z,27.90
2018-08-12T17:37:44.447Z,27.90
2018-08-12T17:40:13.771Z,27.70
2018-08-12T17:42:41.824Z,27.60
2018-08-12T17:45:11.783Z,27.50
2018-08-12T17:47:40.175Z,27.40
2018-08-12T17:50:09.493Z,27.30
2018-08-12T17:52:37.563Z,27.30
2018-08-12T17:55:05.719Z,27.30
2018-08-12T17:57:33.730Z,27.10
2018-08-12T18:00:02.133Z,27.10
2018-08-12T18:02:30.674Z,26.90
2018-08-12T18:04:58.712Z,26.90
2018-08-12T18:07:26.684Z,26.90
2018-08-12T18:09:54.679Z,26.80
2018-08-12T18:12:22.698Z,26.70
2018-08-12T18:14:50.688Z,26.70
2018-08-12T18:17:18.808Z,26.70
2018-08-12T18:19:46.826Z,26.60
2018-08-12T18:22:14.818Z,26.60
2018-08-12T18:24:42.856Z,26.50
2018-08-12T18:27:10.836Z,26.40
2018-08-12T18:29:38.923Z,26.20
2018-08-12T18:32:07.007Z,26.10
2018-08-12T18:34:35.187Z,26.10
2018-08-12T18:37:03.277Z,26.00
2018-08-12T18:39:31.379Z,25.90
2018-08-12T18:41:59.406Z,25.80
2018-08-12T18:44:27.452Z,25.70
2018-08-12T18:46:55.440Z,25.70
2018-08-12T18:49:23.477Z,25.60
2018-08-12T18:51:51.481Z,25.50
2018-08-12T18:54:19.471Z,25.40
2018-08-12T18:56:47.538Z,25.30
2018-08-12T18:59:16.605Z,25.20
2018-08-12T19:01:44.652Z,25.10
2018-08-12T19:04:12.625Z,25.00
2018-08-12T19:06:40.595Z,25.00
2018-08-12T19:09:10.095Z,24.90
2018-08-12T19:11:38.188Z,24.80
2018-08-12T19:14:06.491Z,24.80
2018-08-12T19:16:34.565Z,24.70
2018-08-12T19:19:02.610Z,24.60
2018-08-12T19:21:30.665Z,24.60
2018-08-12T19:23:58.626Z,24.50
2018-08-12T19:26:26.622Z,24.40
2018-08-12T19:28:54.687Z,24.40
2018-08-12T19:31:22.653Z,24.30
2018-08-12T19:33:50.651Z,24.20
2018-08-12T19:36:18.575Z,24.20
2018-08-12T19:38:47.214Z,24.20
2018-08-12T19:41:15.188Z,24.10
2018-08-12T19:43:43.189Z,24.10
2018-08-12T19:46:11.194Z,24.00
2018-08-12T19:48:39.161Z,23.90
2018-08-12T19:51:07.161Z,23.90
2018-08-12T19:53:35.215Z,23.80
2018-08-12T19:56:03.264Z,23.80
2018-08-12T19:58:31.410Z,23.70
2018-08-12T20:00:59.435Z,23.70
2018-08-12T20:03:27.500Z,23.70
2018-08-12T20:05:55.505Z,23.60
2018-08-12T20:08:23.819Z,23.50
2018-08-12T20:10:51.805Z,23.50
2018-08-12T20:13:19.851Z,23.40
2018-08-12T20:15:47.816Z,23.40
2018-08-12T20:18:15.820Z,23.50
2018-08-12T20:20:43.755Z,23.40
2018-08-12T20:23:11.792Z,23.30
2018-08-12T20:25:39.826Z,23.20
2018-08-12T20:28:07.896Z,23.20
2018-08-12T20:30:35.941Z,23.10
2018-08-12T20:33:03.966Z,23.10
2018-08-12T20:35:32.151Z,23.10
2018-08-12T20:38:00.113Z,23.00
2018-08-12T20:40:28.199Z,23.00
2018-08-12T20:42:56.342Z,23.00
2018-08-12T20:45:24.320Z,22.90
2018-08-12T20:47:52.340Z,22.90
2018-08-12T20:50:20.315Z,22.70
2018-08-12T20:52:48.281Z,22.70
2018-08-12T20:55:16.400Z,22.50
2018-08-12T20:57:44.366Z,22.50
2018-08-12T21:00:12.353Z,22.50
2018-08-12T21:02:40.450Z,22.40
2018-08-12T21:05:08.824Z,22.40
2018-08-12T21:07:39.479Z,22.40
2018-08-12T21:10:07.521Z,22.40
2018-08-12T21:12:35.564Z,22.40
2018-08-12T21:15:03.956Z,22.40
2018-08-12T21:17:32.097Z,22.50
2018-08-12T21:20:00.088Z,22.50
2018-08-12T21:22:28.110Z,22.50
2018-08-12T21:24:56.101Z,22.40
2018-08-12T21:27:24.062Z,22.40
2018-08-12T21:29:52.064Z,22.20
2018-08-12T21:32:20.107Z,22.30
2018-08-12T21:34:48.877Z,22.30
2018-08-12T21:37:16.938Z,22.30
2018-08-12T21:39:44.987Z,22.30
2018-08-12T21:42:12.879Z,22.20
2018-08-12T21:44:40.862Z,22.10
2018-08-12T21:47:08.830Z,21.90
2018-08-12T21:49:36.784Z,21.90
2018-08-12T21:52:04.800Z,21.80
2018-08-12T21:54:32.836Z,21.80
2018-08-12T21:57:00.838Z,21.70
2018-08-12T21:59:28.815Z,21.80
2018-08-12T22:01:56.925Z,21.80
2018-08-12T22:04:24.964Z,21.70
2018-08-12T22:06:53.722Z,21.70
2018-08-12T22:09:21.687Z,21.70
2018-08-12T22:11:49.669Z,21.60
2018-08-12T22:14:17.652Z,21.60
2018-08-12T22:16:45.696Z,21.50
2018-08-12T22:19:13.662Z,21.40
2018-08-12T22:21:41.691Z,21.30
2018-08-12T22:24:09.677Z,21.30
2018-08-12T22:26:37.726Z,21.30
2018-08-12T22:29:05.753Z,21.30
2018-08-12T22:31:33.833Z,21.30
2018-08-12T22:34:01.888Z,21.30
2018-08-12T22:36:30.781Z,21.20
2018-08-12T22:38:58.812Z,21.30
2018-08-12T22:41:26.835Z,21.20
2018-08-12T22:43:54.873Z,21.20
2018-08-12T22:46:22.921Z,21.20
2018-08-12T22:48:50.933Z,21.20
2018-08-12T22:51:18.952Z,21.20
2018-08-12T22:53:46.951Z,21.20
2018-08-12T22:56:14.972Z,21.20
2018-08-12T22:58:43.059Z,21.10
2018-08-12T23:01:11.041Z,21.10
2018-08-12T23:03:39.069Z,21.10
2018-08-12T23:06:07.241Z,21.00
2018-08-12T23:08:35.252Z,20.90
2018-08-12T23:11:03.425Z,20.80
2018-08-12T23:13:31.597Z,20.70
2018-08-12T23:16:13.040Z,20.80
2018-08-12T23:18:41.137Z,20.70
2018-08-12T23:21:11.033Z,20.60
2018-08-12T23:23:40.055Z,20.60
2018-08-12T23:26:08.560Z,20.60
2018-08-12T23:28:36.606Z,20.60
2018-08-12T23:31:04.682Z,20.70
2018-08-12T23:33:32.675Z,20.60
2018-08-12T23:36:00.672Z,20.60
2018-08-12T23:38:28.948Z,20.60
2018-08-12T23:40:56.931Z,20.50
2018-08-12T23:43:25.252Z,20.50
2018-08-12T23:45:53.272Z,20.40
2018-08-12T23:48:21.338Z,20.40
2018-08-12T23:50:49.375Z,20.20
2018-08-12T23:53:17.348Z,20.10
2018-08-12T23:55:45.296Z,20.00
2018-08-12T23:58:13.321Z,19.90
